sensor_id;sensor_type;location;lat;lon;timestamp;pressure;altitude;pressure_sealevel;temperature;humidity
50349;BME280;36250;48.740;22.174;2024-02-23T00:02:03;99365.56;;;13.22;56.66
50349;BME280;36250;48.740;22.174;2024-02-23T00:04:29;99357.94;;;13.19;56.70
50349;BME280;36250;48.740;22.174;2024-02-23T00:06:54;99360.66;;;13.19;57.20
50349;BME280;36250;48.740;22.174;2024-02-23T00:09:20;99361.13;;;13.26;56.96
50349;BME280;36250;48.740;22.174;2024-02-23T00:11:45;99369.28;;;13.31;56.40
50349;BME280;36250;48.740;22.174;2024-02-23T00:14:11;99367.13;;;13.28;56.38
50349;BME280;36250;48.740;22.174;2024-02-23T00:16:38;99365.50;;;13.27;56.69
50349;BME280;36250;48.740;22.174;2024-02-23T00:19:04;99354.84;;;13.26;56.69
50349;BME280;36250;48.740;22.174;2024-02-23T00:21:30;99357.31;;;13.27;56.61
50349;BME280;36250;48.740;22.174;2024-02-23T00:23:55;99351.28;;;13.30;56.67
50349;BME280;36250;48.740;22.174;2024-02-23T00:26:22;99355.91;;;13.30;56.40
50349;BME280;36250;48.740;22.174;2024-02-23T00:28:47;99360.78;;;13.33;56.47
50349;BME280;36250;48.740;22.174;2024-02-23T00:31:12;99354.53;;;13.32;56.11
50349;BME280;36250;48.740;22.174;2024-02-23T00:33:37;99349.06;;;13.32;56.26
50349;BME280;36250;48.740;22.174;2024-02-23T00:36:07;99341.38;;;13.34;56.17
50349;BME280;36250;48.740;22.174;2024-02-23T00:38:32;99334.22;;;13.38;55.94
50349;BME280;36250;48.740;22.174;2024-02-23T00:40:58;99332.88;;;13.36;55.79
50349;BME280;36250;48.740;22.174;2024-02-23T00:43:23;99324.09;;;13.39;55.50
50349;BME280;36250;48.740;22.174;2024-02-23T00:45:49;99323.53;;;13.42;55.38
50349;BME280;36250;48.740;22.174;2024-02-23T00:48:14;99319.94;;;13.46;54.92
50349;BME280;36250;48.740;22.174;2024-02-23T00:50:39;99318.19;;;13.55;54.53
50349;BME280;36250;48.740;22.174;2024-02-23T00:53:05;99319.47;;;13.63;54.51
50349;BME280;36250;48.740;22.174;2024-02-23T00:55:30;99312.53;;;13.70;54.02
50349;BME280;36250;48.740;22.174;2024-02-23T00:57:55;99313.94;;;13.68;53.84
50349;BME280;36250;48.740;22.174;2024-02-23T01:00:21;99322.91;;;13.73;53.63
50349;BME280;36250;48.740;22.174;2024-02-23T01:02:46;99318.53;;;13.72;53.98
50349;BME280;36250;48.740;22.174;2024-02-23T01:05:13;99322.31;;;13.76;53.72
50349;BME280;36250;48.740;22.174;2024-02-23T01:07:38;99316.25;;;13.79;53.39
50349;BME280;36250;48.740;22.174;2024-02-23T01:10:04;99316.25;;;13.79;53.09
50349;BME280;36250;48.740;22.174;2024-02-23T01:12:29;99317.06;;;13.80;52.77
50349;BME280;36250;48.740;22.174;2024-02-23T01:14:55;99311.59;;;13.80;53.25
50349;BME280;36250;48.740;22.174;2024-02-23T01:17:20;99326.28;;;13.84;53.48
50349;BME280;36250;48.740;22.174;2024-02-23T01:19:46;99319.50;;;13.81;53.25
50349;BME280;36250;48.740;22.174;2024-02-23T01:22:11;99318.91;;;13.84;53.25
50349;BME280;36250;48.740;22.174;2024-02-23T01:24:36;99325.72;;;13.87;53.37
50349;BME280;36250;48.740;22.174;2024-02-23T01:27:02;99327.69;;;13.81;53.02
50349;BME280;36250;48.740;22.174;2024-02-23T01:29:27;99332.66;;;13.79;53.34
50349;BME280;36250;48.740;22.174;2024-02-23T01:31:53;99325.56;;;13.78;53.40
50349;BME280;36250;48.740;22.174;2024-02-23T01:34:20;99325.91;;;13.72;53.40
50349;BME280;36250;48.740;22.174;2024-02-23T01:36:45;99332.19;;;13.72;53.27
50349;BME280;36250;48.740;22.174;2024-02-23T01:39:10;99320.44;;;13.72;53.49
50349;BME280;36250;48.740;22.174;2024-02-23T01:41:36;99318.56;;;13.67;53.13
50349;BME280;36250;48.740;22.174;2024-02-23T01:44:01;99319.75;;;13.61;53.22
50349;BME280;36250;48.740;22.174;2024-02-23T01:46:27;99313.56;;;13.74;52.96
50349;BME280;36250;48.740;22.174;2024-02-23T01:48:53;99320.97;;;13.74;52.95
50349;BME280;36250;48.740;22.174;2024-02-23T01:51:19;99323.94;;;13.77;53.03
50349;BME280;36250;48.740;22.174;2024-02-23T01:53:45;99322.06;;;13.73;53.11
50349;BME280;36250;48.740;22.174;2024-02-23T01:56:11;99315.78;;;13.72;53.34
50349;BME280;36250;48.740;22.174;2024-02-23T01:58:39;99315.78;;;13.72;52.98
50349;BME280;36250;48.740;22.174;2024-02-23T02:01:05;99317.94;;;13.75;52.89
50349;BME280;36250;48.740;22.174;2024-02-23T02:03:30;99321.19;;;13.77;52.85
50349;BME280;36250;48.740;22.174;2024-02-23T02:05:58;99321.03;;;13.69;52.80
50349;BME280;36250;48.740;22.174;2024-02-23T02:08:26;99318.25;;;13.74;52.76
50349;BME280;36250;48.740;22.174;2024-02-23T02:10:52;99329.69;;;13.76;52.53
50349;BME280;36250;48.740;22.174;2024-02-23T02:13:17;99334.41;;;13.70;52.60
50349;BME280;36250;48.740;22.174;2024-02-23T02:15:42;99328.13;;;13.70;53.40
50349;BME280;36250;48.740;22.174;2024-02-23T02:18:09;99339.06;;;13.70;53.56
50349;BME280;36250;48.740;22.174;2024-02-23T02:20:36;99334.41;;;13.70;53.95
50349;BME280;36250;48.740;22.174;2024-02-23T02:23:01;99327.44;;;13.59;54.47
50349;BME280;36250;48.740;22.174;2024-02-23T02:25:27;99328.53;;;13.58;54.68
50349;BME280;36250;48.740;22.174;2024-02-23T02:27:52;99338.50;;;13.49;54.95
50349;BME280;36250;48.740;22.174;2024-02-23T02:30:17;99337.88;;;13.52;55.01
50349;BME280;36250;48.740;22.174;2024-02-23T02:32:43;99337.97;;;13.47;55.33
50349;BME280;36250;48.740;22.174;2024-02-23T02:35:10;99338.50;;;13.49;55.22
50349;BME280;36250;48.740;22.174;2024-02-23T02:37:36;99341.75;;;13.51;55.34
50349;BME280;36250;48.740;22.174;2024-02-23T02:40:02;99340.72;;;13.47;54.93
50349;BME280;36250;48.740;22.174;2024-02-23T02:42:28;99339.06;;;13.46;55.07
50349;BME280;36250;48.740;22.174;2024-02-23T02:44:54;99345.41;;;13.42;55.02
50349;BME280;36250;48.740;22.174;2024-02-23T02:47:19;99345.34;;;13.47;55.50
50349;BME280;36250;48.740;22.174;2024-02-23T02:49:45;99338.03;;;13.42;55.61
50349;BME280;36250;48.740;22.174;2024-02-23T02:52:10;99346.03;;;13.34;56.41
50349;BME280;36250;48.740;22.174;2024-02-23T02:54:35;99344.69;;;13.31;56.81
50349;BME280;36250;48.740;22.174;2024-02-23T02:57:01;99352.88;;;13.31;56.67
50349;BME280;36250;48.740;22.174;2024-02-23T02:59:26;99348.81;;;13.29;57.13
50349;BME280;36250;48.740;22.174;2024-02-23T03:01:51;99344.25;;;13.19;57.79
50349;BME280;36250;48.740;22.174;2024-02-23T03:04:17;99346.47;;;13.17;57.90
50349;BME280;36250;48.740;22.174;2024-02-23T03:06:42;99351.69;;;13.13;58.17
50349;BME280;36250;48.740;22.174;2024-02-23T03:09:08;99349.78;;;13.14;58.29
50349;BME280;36250;48.740;22.174;2024-02-23T03:11:33;99353.66;;;13.08;58.43
50349;BME280;36250;48.740;22.174;2024-02-23T03:13:58;99353.66;;;13.08;58.26
50349;BME280;36250;48.740;22.174;2024-02-23T03:16:24;99352.84;;;13.07;58.44
50349;BME280;36250;48.740;22.174;2024-02-23T03:18:51;99355.84;;;13.06;58.58
50349;BME280;36250;48.740;22.174;2024-02-23T03:21:17;99344.41;;;12.99;58.84
50349;BME280;36250;48.740;22.174;2024-02-23T03:23:42;99340.97;;;12.88;59.19
50349;BME280;36250;48.740;22.174;2024-02-23T03:26:07;99348.09;;;12.84;59.33
50349;BME280;36250;48.740;22.174;2024-02-23T03:28:33;99348.94;;;12.80;59.78
50349;BME280;36250;48.740;22.174;2024-02-23T03:31:00;99349.00;;;12.75;60.04
50349;BME280;36250;48.740;22.174;2024-02-23T03:33:26;99361.56;;;12.76;59.87
50349;BME280;36250;48.740;22.174;2024-02-23T03:35:52;99356.34;;;12.74;60.41
50349;BME280;36250;48.740;22.174;2024-02-23T03:38:17;99364.81;;;12.78;60.36
50349;BME280;36250;48.740;22.174;2024-02-23T03:40:43;99366.72;;;12.77;60.34
50349;BME280;36250;48.740;22.174;2024-02-23T03:43:08;99364.81;;;12.78;60.68
50349;BME280;36250;48.740;22.174;2024-02-23T03:45:34;99374.16;;;12.67;61.20
50349;BME280;36250;48.740;22.174;2024-02-23T03:47:59;99362.16;;;12.68;60.73
50349;BME280;36250;48.740;22.174;2024-02-23T03:50:25;99362.41;;;12.71;61.17
50349;BME280;36250;48.740;22.174;2024-02-23T03:52:50;99364.38;;;12.61;60.88
50349;BME280;36250;48.740;22.174;2024-02-23T03:55:16;99371.44;;;12.67;60.88
50349;BME280;36250;48.740;22.174;2024-02-23T03:57:41;99380.16;;;12.74;60.90
50349;BME280;36250;48.740;22.174;2024-02-23T04:00:07;99386.44;;;12.69;60.90
50349;BME280;36250;48.740;22.174;2024-02-23T04:02:33;99379.06;;;12.70;61.63
50349;BME280;36250;48.740;22.174;2024-02-23T04:04:59;99377.44;;;12.69;61.37
50349;BME280;36250;48.740;22.174;2024-02-23T04:07:24;99379.63;;;12.67;61.60
50349;BME280;36250;48.740;22.174;2024-02-23T04:09:49;99379.09;;;12.65;61.89
50349;BME280;36250;48.740;22.174;2024-02-23T04:12:20;99367.19;;;12.50;62.33
50349;BME280;36250;48.740;22.174;2024-02-23T04:14:46;99376.47;;;12.49;62.69
50349;BME280;36250;48.740;22.174;2024-02-23T04:17:12;99378.88;;;12.61;62.21
50349;BME280;36250;48.740;22.174;2024-02-23T04:19:37;99384.59;;;12.60;62.69
50349;BME280;36250;48.740;22.174;2024-02-23T04:22:04;99383.53;;;12.56;62.61
50349;BME280;36250;48.740;22.174;2024-02-23T04:24:29;99385.47;;;12.50;63.27
50349;BME280;36250;48.740;22.174;2024-02-23T04:26:55;99377.03;;;12.51;63.05
50349;BME280;36250;48.740;22.174;2024-02-23T04:29:21;99384.13;;;12.47;63.50
50349;BME280;36250;48.740;22.174;2024-02-23T04:31:46;99376.75;;;12.48;63.86
50349;BME280;36250;48.740;22.174;2024-02-23T04:34:12;99386.06;;;12.47;63.54
50349;BME280;36250;48.740;22.174;2024-02-23T04:36:37;99381.16;;;12.44;63.84
50349;BME280;36250;48.740;22.174;2024-02-23T04:39:02;99388.56;;;12.33;64.32
50349;BME280;36250;48.740;22.174;2024-02-23T04:41:28;99394.84;;;12.39;64.34
50349;BME280;36250;48.740;22.174;2024-02-23T04:43:53;99384.41;;;12.46;63.94
50349;BME280;36250;48.740;22.174;2024-02-23T04:46:23;99384.38;;;12.51;63.59
50349;BME280;36250;48.740;22.174;2024-02-23T04:48:49;99389.53;;;12.58;63.53
50349;BME280;36250;48.740;22.174;2024-02-23T04:51:14;99393.06;;;12.58;63.00
50349;BME280;36250;48.740;22.174;2024-02-23T04:53:39;99396.00;;;12.67;63.36
50349;BME280;36250;48.740;22.174;2024-02-23T04:56:05;99386.41;;;12.74;63.15
50349;BME280;36250;48.740;22.174;2024-02-23T04:58:30;99394.88;;;12.73;62.98
50349;BME280;36250;48.740;22.174;2024-02-23T05:00:56;99400.38;;;12.68;63.45
50349;BME280;36250;48.740;22.174;2024-02-23T05:03:21;99396.25;;;12.70;63.08
50349;BME280;36250;48.740;22.174;2024-02-23T05:05:47;99402.81;;;12.69;63.37
50349;BME280;36250;48.740;22.174;2024-02-23T05:08:13;99405.84;;;12.68;63.24
50349;BME280;36250;48.740;22.174;2024-02-23T05:10:38;99402.63;;;12.61;63.32
50349;BME280;36250;48.740;22.174;2024-02-23T05:13:04;99400.16;;;12.64;63.50
50349;BME280;36250;48.740;22.174;2024-02-23T05:15:29;99403.09;;;12.68;63.40
50349;BME280;36250;48.740;22.174;2024-02-23T05:17:54;99403.66;;;12.65;63.91
50349;BME280;36250;48.740;22.174;2024-02-23T05:20:20;99399.81;;;12.71;63.67
50349;BME280;36250;48.740;22.174;2024-02-23T05:22:45;99408.00;;;12.71;63.71
50349;BME280;36250;48.740;22.174;2024-02-23T05:25:10;99403.66;;;12.65;63.61
50349;BME280;36250;48.740;22.174;2024-02-23T05:27:36;99411.06;;;12.64;63.63
50349;BME280;36250;48.740;22.174;2024-02-23T05:30:02;99417.28;;;12.70;63.79
50349;BME280;36250;48.740;22.174;2024-02-23T05:32:27;99420.84;;;12.70;63.56
50349;BME280;36250;48.740;22.174;2024-02-23T05:34:52;99418.66;;;12.67;63.85
50349;BME280;36250;48.740;22.174;2024-02-23T05:37:19;99424.41;;;12.71;63.91
50349;BME280;36250;48.740;22.174;2024-02-23T05:39:45;99422.75;;;12.70;64.02
50349;BME280;36250;48.740;22.174;2024-02-23T05:42:11;99427.13;;;12.71;63.88
50349;BME280;36250;48.740;22.174;2024-02-23T05:44:37;99433.13;;;12.73;63.84
50349;BME280;36250;48.740;22.174;2024-02-23T05:47:02;99434.19;;;12.72;63.82
50349;BME280;36250;48.740;22.174;2024-02-23T05:49:28;99444.31;;;12.71;63.75
50349;BME280;36250;48.740;22.174;2024-02-23T05:51:53;99443.78;;;12.69;64.07
50349;BME280;36250;48.740;22.174;2024-02-23T05:54:18;99455.28;;;12.66;64.16
50349;BME280;36250;48.740;22.174;2024-02-23T05:56:44;99450.09;;;12.60;64.79
50349;BME280;36250;48.740;22.174;2024-02-23T05:59:09;99461.63;;;12.57;64.50
50349;BME280;36250;48.740;22.174;2024-02-23T06:01:35;99453.97;;;12.53;64.96
50349;BME280;36250;48.740;22.174;2024-02-23T06:04:00;99455.03;;;12.58;64.28
50349;BME280;36250;48.740;22.174;2024-02-23T06:06:25;99451.78;;;12.56;64.97
50349;BME280;36250;48.740;22.174;2024-02-23T06:08:52;99446.03;;;12.57;64.51
50349;BME280;36250;48.740;22.174;2024-02-23T06:11:17;99448.00;;;12.51;64.47
50349;BME280;36250;48.740;22.174;2024-02-23T06:13:42;99453.69;;;12.55;64.87
50349;BME280;36250;48.740;22.174;2024-02-23T06:16:11;99455.59;;;12.54;64.61
50349;BME280;36250;48.740;22.174;2024-02-23T06:18:37;99458.31;;;12.54;64.42
50349;BME280;36250;48.740;22.174;2024-02-23T06:21:13;99462.41;;;12.57;64.40
50349;BME280;36250;48.740;22.174;2024-02-23T06:23:39;99458.28;;;12.60;64.25
50349;BME280;36250;48.740;22.174;2024-02-23T06:26:05;99466.78;;;12.58;64.50
50349;BME280;36250;48.740;22.174;2024-02-23T06:28:30;99466.75;;;12.63;64.04
50349;BME280;36250;48.740;22.174;2024-02-23T06:30:56;99474.16;;;12.58;63.99
50349;BME280;36250;48.740;22.174;2024-02-23T06:33:21;99471.16;;;12.59;64.07
50349;BME280;36250;48.740;22.174;2024-02-23T06:35:46;99471.41;;;12.63;63.60
50349;BME280;36250;48.740;22.174;2024-02-23T06:38:12;99481.22;;;12.69;64.24
50349;BME280;36250;48.740;22.174;2024-02-23T06:40:37;99472.44;;;12.72;64.30
50349;BME280;36250;48.740;22.174;2024-02-23T06:43:02;99477.16;;;12.61;64.61
50349;BME280;36250;48.740;22.174;2024-02-23T06:45:28;99474.97;;;12.58;64.16
50349;BME280;36250;48.740;22.174;2024-02-23T06:47:53;99477.69;;;12.63;64.11
50349;BME280;36250;48.740;22.174;2024-02-23T06:50:18;99486.97;;;12.62;64.34
50349;BME280;36250;48.740;22.174;2024-02-23T06:52:44;99483.69;;;12.60;64.73
50349;BME280;36250;48.740;22.174;2024-02-23T06:55:10;99483.94;;;12.69;64.97
50349;BME280;36250;48.740;22.174;2024-02-23T06:57:35;99480.38;;;12.68;64.74
50349;BME280;36250;48.740;22.174;2024-02-23T07:00:02;99479.81;;;12.71;64.89
50349;BME280;36250;48.740;22.174;2024-02-23T07:02:27;99482.25;;;12.73;64.81
50349;BME280;36250;48.740;22.174;2024-02-23T07:04:56;99476.28;;;12.71;65.27
50349;BME280;36250;48.740;22.174;2024-02-23T07:07:23;99482.78;;;12.75;65.21
50349;BME280;36250;48.740;22.174;2024-02-23T07:09:49;99483.59;;;12.80;65.34
50349;BME280;36250;48.740;22.174;2024-02-23T07:12:15;99489.03;;;12.85;65.36
50349;BME280;36250;48.740;22.174;2024-02-23T07:14:40;99492.56;;;12.86;65.44
50349;BME280;36250;48.740;22.174;2024-02-23T07:17:06;99490.38;;;12.88;65.47
50349;BME280;36250;48.740;22.174;2024-02-23T07:19:31;99494.16;;;12.92;65.18
50349;BME280;36250;48.740;22.174;2024-02-23T07:21:57;99497.91;;;13.01;65.25
50349;BME280;36250;48.740;22.174;2024-02-23T07:24:22;99494.69;;;12.94;65.14
50349;BME280;36250;48.740;22.174;2024-02-23T07:26:47;99491.41;;;12.97;65.38
50349;BME280;36250;48.740;22.174;2024-02-23T07:29:12;99500.41;;;12.97;65.46
50349;BME280;36250;48.740;22.174;2024-02-23T07:31:38;99499.56;;;13.02;65.49
50349;BME280;36250;48.740;22.174;2024-02-23T07:34:03;99489.72;;;13.06;65.39
50349;BME280;36250;48.740;22.174;2024-02-23T07:36:28;99490.81;;;13.05;65.08
50349;BME280;36250;48.740;22.174;2024-02-23T07:38:54;99487.56;;;13.08;65.22
50349;BME280;36250;48.740;22.174;2024-02-23T07:41:20;99479.88;;;13.05;65.30
50349;BME280;36250;48.740;22.174;2024-02-23T07:43:46;99492.47;;;13.06;65.34
50349;BME280;36250;48.740;22.174;2024-02-23T07:46:12;99494.38;;;13.05;65.22
50349;BME280;36250;48.740;22.174;2024-02-23T07:48:37;99487.53;;;13.13;65.54
50349;BME280;36250;48.740;22.174;2024-02-23T07:51:03;99492.72;;;13.09;65.20
50349;BME280;36250;48.740;22.174;2024-02-23T07:53:29;99496.81;;;13.12;65.52
50349;BME280;36250;48.740;22.174;2024-02-23T07:55:55;99495.16;;;13.11;65.20
50349;BME280;36250;48.740;22.174;2024-02-23T07:58:20;99490.28;;;13.08;65.25
50349;BME280;36250;48.740;22.174;2024-02-23T08:00:46;99482.09;;;13.08;65.61
50349;BME280;36250;48.740;22.174;2024-02-23T08:03:12;99504.47;;;13.10;65.86
50349;BME280;36250;48.740;22.174;2024-02-23T08:05:37;99486.44;;;13.09;65.64
50349;BME280;36250;48.740;22.174;2024-02-23T08:08:02;99492.16;;;13.12;65.56
50349;BME280;36250;48.740;22.174;2024-02-23T08:10:28;99489.94;;;13.14;65.44
50349;BME280;36250;48.740;22.174;2024-02-23T08:12:53;99488.63;;;13.07;65.32
50349;BME280;36250;48.740;22.174;2024-02-23T08:15:18;99485.34;;;13.05;65.64
50349;BME280;36250;48.740;22.174;2024-02-23T08:17:44;99487.00;;;13.06;65.68
50349;BME280;36250;48.740;22.174;2024-02-23T08:20:09;99491.38;;;13.02;65.71
50349;BME280;36250;48.740;22.174;2024-02-23T08:22:35;99487.28;;;12.99;65.53
50349;BME280;36250;48.740;22.174;2024-02-23T08:25:00;99497.66;;;13.02;65.67
50349;BME280;36250;48.740;22.174;2024-02-23T08:27:26;99495.19;;;13.01;65.69
50349;BME280;36250;48.740;22.174;2024-02-23T08:29:51;99497.38;;;13.04;65.58
50349;BME280;36250;48.740;22.174;2024-02-23T08:32:16;99499.84;;;13.05;65.79
50349;BME280;36250;48.740;22.174;2024-02-23T08:34:43;99487.00;;;13.06;65.66
50349;BME280;36250;48.740;22.174;2024-02-23T08:37:08;99492.22;;;12.97;65.89
50349;BME280;36250;48.740;22.174;2024-02-23T08:39:33;99492.22;;;12.97;65.92
50349;BME280;36250;48.740;22.174;2024-02-23T08:42:00;99494.09;;;13.02;66.22
50349;BME280;36250;48.740;22.174;2024-02-23T08:44:26;99493.03;;;13.03;66.05
50349;BME280;36250;48.740;22.174;2024-02-23T08:46:51;99495.75;;;13.08;66.08
50349;BME280;36250;48.740;22.174;2024-02-23T08:49:16;99495.78;;;12.98;65.82
50349;BME280;36250;48.740;22.174;2024-02-23T08:51:42;99502.31;;;13.02;65.64
50349;BME280;36250;48.740;22.174;2024-02-23T08:54:07;99499.56;;;13.07;65.76
50349;BME280;36250;48.740;22.174;2024-02-23T08:56:37;99492.97;;;13.13;65.47
50349;BME280;36250;48.740;22.174;2024-02-23T08:59:03;99505.53;;;13.14;65.03
50349;BME280;36250;48.740;22.174;2024-02-23T09:01:28;99499.56;;;13.02;65.45
50349;BME280;36250;48.740;22.174;2024-02-23T09:03:54;99500.09;;;13.04;65.40
50349;BME280;36250;48.740;22.174;2024-02-23T09:06:19;99495.75;;;13.03;65.45
50349;BME280;36250;48.740;22.174;2024-02-23T09:08:45;99492.19;;;13.07;65.52
50349;BME280;36250;48.740;22.174;2024-02-23T09:11:10;99494.38;;;13.10;65.35
50349;BME280;36250;48.740;22.174;2024-02-23T09:13:38;99498.44;;;13.13;65.43
50349;BME280;36250;48.740;22.174;2024-02-23T09:16:04;99497.28;;;13.19;65.54
50349;BME280;36250;48.740;22.174;2024-02-23T09:18:29;99488.56;;;13.17;65.47
50349;BME280;36250;48.740;22.174;2024-02-23T09:20:55;99490.78;;;13.15;65.24
50349;BME280;36250;48.740;22.174;2024-02-23T09:23:20;99495.94;;;13.16;65.21
50349;BME280;36250;48.740;22.174;2024-02-23T09:25:45;99489.63;;;13.21;64.87
50349;BME280;36250;48.740;22.174;2024-02-23T09:28:11;99496.97;;;13.26;64.75
50349;BME280;36250;48.740;22.174;2024-02-23T09:30:36;99492.34;;;13.21;64.61
50349;BME280;36250;48.740;22.174;2024-02-23T09:33:02;99492.31;;;13.26;64.79
50349;BME280;36250;48.740;22.174;2024-02-23T09:35:28;99502.91;;;13.33;64.95
50349;BME280;36250;48.740;22.174;2024-02-23T09:37:53;99496.94;;;13.31;64.43
50349;BME280;36250;48.740;22.174;2024-02-23T09:40:19;99491.50;;;13.26;64.68
50349;BME280;36250;48.740;22.174;2024-02-23T09:42:57;99498.88;;;13.30;64.75
50349;BME280;36250;48.740;22.174;2024-02-23T09:45:26;99502.34;;;13.36;65.03
50349;BME280;36250;48.740;22.174;2024-02-23T09:47:57;99499.84;;;13.44;64.79
50349;BME280;36250;48.740;22.174;2024-02-23T09:50:24;99496.47;;;13.52;64.69
50349;BME280;36250;48.740;22.174;2024-02-23T09:52:50;99500.56;;;13.55;64.25
50349;BME280;36250;48.740;22.174;2024-02-23T09:55:21;99503.94;;;13.47;64.62
50349;BME280;36250;48.740;22.174;2024-02-23T09:57:48;99487.13;;;13.58;64.29
50349;BME280;36250;48.740;22.174;2024-02-23T10:00:16;99495.91;;;13.55;64.13
50349;BME280;36250;48.740;22.174;2024-02-23T10:02:43;99499.41;;;13.61;64.40
50349;BME280;36250;48.740;22.174;2024-02-23T10:05:10;99496.13;;;13.64;64.39
50349;BME280;36250;48.740;22.174;2024-02-23T10:07:35;99490.06;;;13.67;63.89
50349;BME280;36250;48.740;22.174;2024-02-23T10:10:01;99495.25;;;13.68;63.96
50349;BME280;36250;48.740;22.174;2024-02-23T10:12:26;99491.66;;;13.73;63.84
50349;BME280;36250;48.740;22.174;2024-02-23T10:14:52;99487.56;;;13.70;63.57
50349;BME280;36250;48.740;22.174;2024-02-23T10:17:18;99492.78;;;13.67;63.96
50349;BME280;36250;48.740;22.174;2024-02-23T10:19:45;99487.91;;;13.64;63.85
50349;BME280;36250;48.740;22.174;2024-02-23T10:22:10;99489.34;;;13.56;63.37
50349;BME280;36250;48.740;22.174;2024-02-23T10:24:37;99495.34;;;13.58;63.87
50349;BME280;36250;48.740;22.174;2024-02-23T10:27:03;99494.84;;;13.51;63.88
50349;BME280;36250;48.740;22.174;2024-02-23T10:29:30;99493.81;;;13.47;63.80
50349;BME280;36250;48.740;22.174;2024-02-23T10:31:57;99488.47;;;13.32;63.55
50349;BME280;36250;48.740;22.174;2024-02-23T10:34:23;99494.44;;;13.34;63.93
50349;BME280;36250;48.740;22.174;2024-02-23T10:36:49;99488.91;;;13.44;63.80
50349;BME280;36250;48.740;22.174;2024-02-23T10:39:16;99487.25;;;13.43;63.50
50349;BME280;36250;48.740;22.174;2024-02-23T10:41:56;99491.63;;;13.44;63.55
50349;BME280;36250;48.740;22.174;2024-02-23T10:44:23;99491.59;;;13.49;63.49
50349;BME280;36250;48.740;22.174;2024-02-23T10:46:50;99492.88;;;13.62;63.53
50349;BME280;36250;48.740;22.174;2024-02-23T10:49:17;99500.94;;;13.72;63.16
50349;BME280;36250;48.740;22.174;2024-02-23T10:51:45;99492.47;;;13.73;62.76
50349;BME280;36250;48.740;22.174;2024-02-23T10:54:12;99491.56;;;13.83;62.59
50349;BME280;36250;48.740;22.174;2024-02-23T10:56:38;99497.81;;;13.89;62.57
50349;BME280;36250;48.740;22.174;2024-02-23T10:59:04;99490.28;;;13.99;62.40
50349;BME280;36250;48.740;22.174;2024-02-23T11:01:32;99488.06;;;14.01;61.42
50349;BME280;36250;48.740;22.174;2024-02-23T11:03:59;99490.06;;;13.96;61.36
50349;BME280;36250;48.740;22.174;2024-02-23T11:06:28;99495.94;;;14.08;61.50
50349;BME280;36250;48.740;22.174;2024-02-23T11:08:53;99497.56;;;14.09;61.08
50349;BME280;36250;48.740;22.174;2024-02-23T11:11:19;99491.56;;;14.07;61.19
50349;BME280;36250;48.740;22.174;2024-02-23T11:13:44;99489.25;;;14.19;61.24
50349;BME280;36250;48.740;22.174;2024-02-23T11:16:11;99488.09;;;14.25;60.69
50349;BME280;36250;48.740;22.174;2024-02-23T11:18:38;99488.38;;;14.23;60.98
50349;BME280;36250;48.740;22.174;2024-02-23T11:21:05;99490.44;;;14.13;60.44
50349;BME280;36250;48.740;22.174;2024-02-23T11:23:41;99500.84;;;14.11;60.65
50349;BME280;36250;48.740;22.174;2024-02-23T11:26:09;99504.09;;;14.13;60.58
50349;BME280;36250;48.740;22.174;2024-02-23T11:28:42;99512.53;;;14.16;60.89
50349;BME280;36250;48.740;22.174;2024-02-23T11:31:13;99512.31;;;14.13;60.53
50349;BME280;36250;48.740;22.174;2024-02-23T11:33:38;99510.25;;;14.23;60.50
50349;BME280;36250;48.740;22.174;2024-02-23T11:36:10;99513.78;;;14.29;60.20
50349;BME280;36250;48.740;22.174;2024-02-23T11:38:36;99521.13;;;14.33;60.15
50349;BME280;36250;48.740;22.174;2024-02-23T11:41:02;99523.88;;;14.33;60.16
50349;BME280;36250;48.740;22.174;2024-02-23T11:43:28;99521.44;;;14.32;60.09
50349;BME280;36250;48.740;22.174;2024-02-23T11:45:53;99512.00;;;14.43;59.89
50349;BME280;36250;48.740;22.174;2024-02-23T11:48:19;99516.69;;;14.61;59.64
50349;BME280;36250;48.740;22.174;2024-02-23T11:50:44;99517.69;;;14.70;59.24
50349;BME280;36250;48.740;22.174;2024-02-23T11:53:10;99510.59;;;14.69;59.16
50349;BME280;36250;48.740;22.174;2024-02-23T11:55:35;99502.22;;;14.79;59.16
50349;BME280;36250;48.740;22.174;2024-02-23T11:58:01;99506.06;;;14.78;59.08
50349;BME280;36250;48.740;22.174;2024-02-23T12:00:26;99504.56;;;14.67;59.55
50349;BME280;36250;48.740;22.174;2024-02-23T12:02:52;99511.16;;;14.66;59.88
50349;BME280;36250;48.740;22.174;2024-02-23T12:05:17;99508.13;;;14.68;59.54
50349;BME280;36250;48.740;22.174;2024-02-23T12:07:43;99515.38;;;14.59;59.59
50349;BME280;36250;48.740;22.174;2024-02-23T12:10:08;99516.69;;;14.61;59.52
50349;BME280;36250;48.740;22.174;2024-02-23T12:12:35;99516.66;;;14.66;59.50
50349;BME280;36250;48.740;22.174;2024-02-23T12:15:01;99523.13;;;14.52;59.39
50349;BME280;36250;48.740;22.174;2024-02-23T12:17:27;99529.59;;;14.37;59.23
50349;BME280;36250;48.740;22.174;2024-02-23T12:19:59;99526.28;;;14.40;59.37
50349;BME280;36250;48.740;22.174;2024-02-23T12:22:25;99530.19;;;14.29;59.59
50349;BME280;36250;48.740;22.174;2024-02-23T12:24:52;99531.59;;;14.26;59.54
50349;BME280;36250;48.740;22.174;2024-02-23T12:27:17;99532.72;;;14.25;59.52
50349;BME280;36250;48.740;22.174;2024-02-23T12:29:53;99522.34;;;14.22;59.57
50349;BME280;36250;48.740;22.174;2024-02-23T12:32:22;99511.84;;;14.29;59.83
50349;BME280;36250;48.740;22.174;2024-02-23T12:34:48;99512.09;;;14.33;59.32
50349;BME280;36250;48.740;22.174;2024-02-23T12:37:17;99521.91;;;14.39;59.12
50349;BME280;36250;48.740;22.174;2024-02-23T12:39:44;99518.91;;;14.35;59.11
50349;BME280;36250;48.740;22.174;2024-02-23T12:42:09;99521.38;;;14.37;58.92
50349;BME280;36250;48.740;22.174;2024-02-23T12:44:35;99520.03;;;14.34;58.56